createdAt,value
2019-04-04T00:00:03.295Z,78.28
2019-04-04T00:10:04.902Z,78.63
2019-04-04T00:20:02.716Z,79.00
2019-04-04T00:30:04.087Z,79.38
2019-04-04T00:40:02.626Z,79.40
2019-04-04T00:50:06.805Z,80.06
2019-04-04T01:00:03.352Z,80.10
2019-04-04T01:10:03.055Z,80.86
2019-04-04T01:20:02.974Z,80.72
2019-04-04T01:30:03.659Z,80.90
2019-04-04T01:40:03.716Z,81.39
2019-04-04T01:50:03.436Z,82.16
2019-04-04T02:00:03.644Z,82.68
2019-04-04T02:10:05.979Z,83.26
2019-04-04T02:20:03.082Z,83.36
2019-04-04T02:30:03.199Z,84.38
2019-04-04T02:40:02.929Z,85.43
2019-04-04T02:50:02.776Z,85.83
2019-04-04T03:00:03.526Z,86.58
2019-04-04T03:10:03.137Z,86.06
2019-04-04T03:20:03.221Z,84.90
2019-04-04T03:30:03.780Z,83.77
2019-04-04T03:40:03.610Z,83.93
2019-04-04T03:50:03.234Z,83.71
2019-04-04T04:00:07.699Z,84.56
2019-04-04T04:10:03.302Z,84.37
2019-04-04T04:20:05.094Z,84.60
2019-04-04T04:30:07.755Z,84.91
2019-04-04T04:40:03.270Z,84.71
2019-04-04T04:50:02.887Z,84.21
2019-04-04T05:00:04.008Z,84.37
2019-04-04T05:10:02.453Z,84.66
2019-04-04T05:20:03.246Z,85.09
2019-04-04T05:30:03.701Z,84.84
2019-04-04T05:40:03.088Z,84.29
2019-04-04T05:50:02.631Z,83.95
2019-04-04T06:00:03.235Z,84.27
2019-04-04T06:10:03.178Z,84.00
2019-04-04T06:20:02.840Z,82.23
2019-04-04T06:30:04.156Z,81.04
2019-04-04T06:40:02.767Z,78.48
2019-04-04T06:50:03.085Z,77.98
2019-04-04T07:00:03.825Z,77.50
2019-04-04T07:10:03.366Z,74.24
2019-04-04T07:20:02.978Z,73.22
2019-04-04T07:30:03.824Z,69.16
2019-04-04T07:40:04.504Z,66.24
2019-04-04T07:50:03.008Z,63.72
2019-04-04T08:00:03.879Z,61.18
2019-04-04T08:10:03.270Z,58.40
2019-04-04T08:20:03.192Z,56.38
2019-04-04T08:30:03.407Z,54.00
2019-04-04T08:40:02.804Z,48.64
2019-04-04T08:50:03.166Z,47.60
2019-04-04T09:00:04.214Z,44.97
2019-04-04T09:10:02.989Z,47.19
2019-04-04T09:20:03.521Z,50.35
2019-04-04T09:30:03.760Z,54.67
2019-04-04T09:40:03.039Z,52.82
2019-04-04T09:50:02.556Z,51.21
2019-04-04T10:00:06.951Z,52.40
2019-04-04T10:10:02.977Z,53.92
2019-04-04T10:20:02.920Z,55.43
2019-04-04T10:30:05.612Z,55.01
2019-04-04T10:40:03.292Z,55.87
2019-04-04T10:50:03.178Z,54.94
2019-04-04T11:00:03.829Z,55.64
2019-04-04T11:10:03.333Z,55.92
2019-04-04T11:20:03.292Z,55.08
2019-04-04T11:30:03.576Z,55.57
2019-04-04T11:40:03.376Z,54.22
2019-04-04T11:50:02.975Z,52.15
2019-04-04T12:00:03.855Z,52.64
2019-04-04T12:10:08.475Z,51.68
2019-04-04T12:20:03.510Z,52.81
2019-04-04T12:30:03.852Z,52.50
2019-04-04T12:40:03.343Z,50.41
2019-04-04T12:50:03.432Z,49.81
2019-04-04T13:00:03.203Z,48.61
2019-04-04T13:10:12.286Z,50.24
2019-04-04T13:20:03.350Z,51.08
2019-04-04T13:30:05.779Z,51.44
2019-04-04T13:40:02.630Z,51.91
2019-04-04T13:50:03.534Z,52.36
2019-04-04T14:00:04.069Z,55.38
2019-04-04T14:10:03.227Z,56.87
2019-04-04T14:20:02.637Z,55.57
2019-04-04T14:30:04.299Z,59.55
2019-04-04T14:40:02.741Z,60.94
2019-04-04T14:50:05.259Z,61.78
2019-04-04T15:00:04.051Z,61.68
2019-04-04T15:10:03.185Z,60.77
2019-04-04T15:20:02.910Z,62.04
2019-04-04T15:30:04.523Z,63.57
2019-04-04T15:40:02.914Z,63.14
2019-04-04T15:50:03.407Z,63.06
2019-04-04T16:00:03.000Z,65.15
2019-04-04T16:10:02.634Z,67.35
2019-04-04T16:20:02.421Z,67.42
2019-04-04T16:30:03.897Z,67.70
2019-04-04T16:40:09.767Z,69.31
2019-04-04T16:50:03.890Z,69.52
2019-04-04T17:00:04.075Z,69.85
2019-04-04T17:10:02.748Z,70.54
2019-04-04T17:20:02.540Z,71.35
2019-04-04T17:30:04.346Z,71.40
2019-04-04T17:40:02.791Z,71.54
2019-04-04T17:50:03.972Z,71.79
2019-04-04T18:00:03.657Z,72.50
2019-04-04T18:10:03.194Z,73.56
2019-04-04T18:20:03.565Z,73.82
2019-04-04T18:30:03.821Z,73.54
2019-04-04T18:40:02.611Z,73.73
2019-04-04T18:50:03.645Z,73.27
2019-04-04T19:00:03.693Z,73.51
2019-04-04T19:10:02.945Z,73.61
2019-04-04T19:20:02.596Z,73.60
2019-04-04T19:30:04.152Z,73.88
2019-04-04T19:40:03.082Z,73.88
2019-04-04T19:50:03.364Z,74.08
2019-04-04T20:00:04.750Z,73.88
2019-04-04T20:10:03.343Z,73.85
2019-04-04T20:20:03.248Z,73.86
2019-04-04T20:30:04.006Z,74.07
2019-04-04T20:40:03.212Z,74.46
2019-04-04T20:50:02.507Z,74.81
2019-04-04T21:00:02.989Z,75.46
2019-04-04T21:10:03.120Z,75.45
2019-04-04T21:20:03.666Z,75.53
2019-04-04T21:30:03.534Z,75.04
2019-04-04T21:40:03.727Z,75.44
2019-04-04T21:50:02.444Z,75.43
2019-04-04T22:00:03.960Z,75.62
2019-04-04T22:10:02.813Z,75.46
2019-04-04T22:20:02.994Z,75.47
2019-04-04T22:30:04.015Z,75.46
2019-04-04T22:40:02.552Z,75.09
2019-04-04T22:50:03.024Z,75.26
2019-04-04T23:00:03.846Z,75.51
2019-04-04T23:10:02.586Z,75.67
2019-04-04T23:20:03.388Z,75.68
2019-04-04T23:30:04.039Z,76.32
2019-04-04T23:40:03.654Z,76.46
2019-04-04T23:50:03.083Z,76.74
